createdAt,value
2018-11-26T00:04:05.971Z,25.87
2018-11-26T00:09:09.161Z,23.40
2018-11-26T00:14:12.370Z,23.73
2018-11-26T00:19:15.571Z,21.93
2018-11-26T00:24:18.712Z,22.90
2018-11-26T00:29:21.876Z,24.27
2018-11-26T00:34:25.025Z,23.07
2018-11-26T00:39:28.191Z,24.13
2018-11-26T00:44:31.360Z,20.90
2018-11-26T00:49:34.548Z,21.20
2018-11-26T00:54:37.716Z,19.03
2018-11-26T00:59:40.887Z,20.27
2018-11-26T01:04:44.056Z,18.27
2018-11-26T01:09:47.211Z,16.17
2018-11-26T01:14:50.410Z,20.57
2018-11-26T01:19:53.574Z,18.77
2018-11-26T01:24:56.751Z,17.67
2018-11-26T01:29:59.915Z,16.37
2018-11-26T01:35:03.179Z,15.80
2018-11-26T01:40:29.704Z,15.27
2018-11-26T01:45:32.864Z,15.67
2018-11-26T01:50:35.991Z,15.80
2018-11-26T01:55:39.138Z,13.00
2018-11-26T02:00:42.343Z,14.63
2018-11-26T02:05:45.552Z,15.60
2018-11-26T02:10:48.739Z,15.73
2018-11-26T02:15:51.940Z,15.10
2018-11-26T02:20:55.071Z,14.83
2018-11-26T02:25:58.184Z,14.93
2018-11-26T02:31:01.328Z,15.40
2018-11-26T02:36:05.051Z,17.77
2018-11-26T02:41:08.187Z,15.27
2018-11-26T02:46:11.334Z,14.07
2018-11-26T02:51:14.454Z,16.60
2018-11-26T02:56:17.644Z,16.00
2018-11-26T03:01:20.763Z,18.73
2018-11-26T03:06:23.896Z,17.70
2018-11-26T03:11:27.091Z,17.43
2018-11-26T03:16:30.230Z,16.37
2018-11-26T03:21:33.364Z,17.70
2018-11-26T03:26:36.491Z,18.67
2018-11-26T03:31:39.627Z,19.60
2018-11-26T03:36:42.761Z,22.53
2018-11-26T03:41:46.663Z,21.17
2018-11-26T03:46:49.783Z,18.57
2018-11-26T03:51:52.996Z,18.10
2018-11-26T03:56:56.131Z,20.30
2018-11-26T04:01:59.344Z,20.53
2018-11-26T04:07:02.528Z,21.37
2018-11-26T04:12:06.832Z,22.07
2018-11-26T04:17:10.010Z,21.93
2018-11-26T04:22:13.215Z,21.70
2018-11-26T04:27:16.352Z,22.73
2018-11-26T04:32:19.534Z,22.13
2018-11-26T04:37:22.663Z,24.13
2018-11-26T04:42:25.843Z,23.40
2018-11-26T04:47:29.016Z,24.30
2018-11-26T04:52:32.165Z,26.07
2018-11-26T04:57:35.583Z,26.20
2018-11-26T05:02:38.696Z,27.90
2018-11-26T05:07:41.884Z,23.43
2018-11-26T05:12:45.060Z,25.77
2018-11-26T05:17:48.231Z,27.87
2018-11-26T05:22:51.353Z,29.07
2018-11-26T05:27:54.482Z,30.30
2018-11-26T05:32:57.633Z,33.33
2018-11-26T05:38:00.774Z,29.97
2018-11-26T05:43:03.923Z,35.43
2018-11-26T05:48:07.187Z,34.67
2018-11-26T05:53:10.352Z,32.23
2018-11-26T05:58:13.471Z,32.33
2018-11-26T06:03:16.604Z,33.90
2018-11-26T06:08:20.351Z,33.97
2018-11-26T06:13:23.543Z,31.97
2018-11-26T06:18:26.684Z,34.93
2018-11-26T06:23:29.852Z,32.33
2018-11-26T06:28:32.996Z,30.93
2018-11-26T06:33:36.124Z,36.47
2018-11-26T06:38:39.266Z,31.63
2018-11-26T06:43:42.464Z,31.87
2018-11-26T06:48:45.680Z,33.30
2018-11-26T06:53:48.835Z,32.87
2018-11-26T06:58:51.991Z,30.77
2018-11-26T07:03:55.140Z,31.87
2018-11-26T07:08:58.286Z,36.03
2018-11-26T07:14:01.495Z,34.00
2018-11-26T07:19:04.931Z,37.63
2018-11-26T07:24:08.153Z,32.30
2018-11-26T07:29:11.283Z,32.27
2018-11-26T07:34:14.423Z,31.67
2018-11-26T07:39:17.597Z,36.63
2018-11-26T07:44:20.767Z,34.10
2018-11-26T07:49:23.921Z,32.70
2018-11-26T07:54:27.056Z,35.30
2018-11-26T07:59:30.192Z,31.50
2018-11-26T08:04:33.349Z,34.90
2018-11-26T08:09:36.548Z,34.17
2018-11-26T08:14:39.756Z,35.50
2018-11-26T08:19:42.936Z,37.63
2018-11-26T08:24:46.093Z,37.67
2018-11-26T08:29:49.281Z,36.20
2018-11-26T08:34:52.535Z,37.90
2018-11-26T08:40:00.293Z,32.57
2018-11-26T08:45:05.876Z,33.30
2018-11-26T08:50:09.683Z,29.70
2018-11-26T08:55:12.932Z,32.87
2018-11-26T09:00:16.157Z,31.13
2018-11-26T09:05:26.676Z,33.57
2018-11-26T09:10:29.906Z,33.87
2018-11-26T09:15:33.117Z,31.07
2018-11-26T09:20:36.342Z,29.17
2018-11-26T09:25:39.519Z,30.97
2018-11-26T09:30:42.949Z,31.53
2018-11-26T09:35:46.161Z,27.67
2018-11-26T09:40:49.330Z,29.47
2018-11-26T09:45:52.518Z,27.83
2018-11-26T09:50:55.680Z,33.87
2018-11-26T09:55:58.868Z,31.77
2018-11-26T10:01:02.187Z,34.13
2018-11-26T10:06:05.792Z,36.17
2018-11-26T10:11:08.990Z,35.30
2018-11-26T10:16:12.230Z,36.77
2018-11-26T10:21:15.488Z,33.70
2018-11-26T10:26:18.687Z,33.80
2018-11-26T10:31:21.876Z,33.23
2018-11-26T10:36:25.057Z,33.30
2018-11-26T10:41:28.241Z,35.70
2018-11-26T10:46:31.436Z,32.77
2018-11-26T10:51:34.662Z,31.67
2018-11-26T10:56:37.845Z,31.23
2018-11-26T11:01:45.913Z,28.03
2018-11-26T11:06:51.928Z,29.37
2018-11-26T11:11:52.418Z,26.93
2018-11-26T11:16:55.652Z,26.17
2018-11-26T11:21:58.856Z,24.10
2018-11-26T11:27:02.081Z,22.47
2018-11-26T11:32:05.269Z,21.37
2018-11-26T11:37:08.470Z,20.60
2018-11-26T11:42:11.701Z,19.90
2018-11-26T11:47:14.946Z,22.33
2018-11-26T11:52:18.143Z,22.73
2018-11-26T11:57:21.406Z,28.47
2018-11-26T12:02:24.713Z,22.33
2018-11-26T12:07:27.945Z,22.80
2018-11-26T12:12:31.204Z,22.33
2018-11-26T12:17:34.441Z,24.50
2018-11-26T12:22:37.674Z,24.77
2018-11-26T12:27:41.044Z,24.80
2018-11-26T12:32:44.324Z,26.83
2018-11-26T12:37:47.562Z,24.50
2018-11-26T12:42:55.675Z,30.60
2018-11-26T12:47:59.050Z,29.33
2018-11-26T12:53:02.289Z,25.70
2018-11-26T12:58:06.903Z,29.83
2018-11-26T13:03:13.456Z,30.00
2018-11-26T13:08:17.043Z,26.83
2018-11-26T13:13:19.966Z,26.17
2018-11-26T13:18:23.376Z,28.67
2018-11-26T13:23:26.580Z,28.40
2018-11-26T13:28:29.795Z,33.70
2018-11-26T13:33:33.047Z,32.50
2018-11-26T13:38:36.273Z,26.53
2018-11-26T13:43:39.481Z,29.20
2018-11-26T13:48:42.658Z,24.40
2018-11-26T13:53:45.900Z,26.77
2018-11-26T13:58:49.152Z,26.50
2018-11-26T14:03:52.472Z,24.97
2018-11-26T14:08:55.714Z,27.03
2018-11-26T14:13:58.952Z,22.97
2018-11-26T14:19:02.172Z,23.13
2018-11-26T14:24:05.946Z,24.50
2018-11-26T14:29:09.168Z,28.33
2018-11-26T14:34:12.316Z,28.17
2018-11-26T14:39:15.505Z,34.63
2018-11-26T14:44:18.726Z,33.23
2018-11-26T14:49:21.968Z,24.57
2018-11-26T14:54:25.185Z,27.40
2018-11-26T14:59:28.434Z,21.07
2018-11-26T15:04:31.650Z,21.33
2018-11-26T15:09:34.889Z,21.47
2018-11-26T15:14:38.222Z,17.20
2018-11-26T15:19:41.473Z,21.93
2018-11-26T15:24:44.785Z,18.87
2018-11-26T15:29:47.973Z,19.30
2018-11-26T15:34:51.227Z,16.03
2018-11-26T15:39:54.434Z,12.13
2018-11-26T15:44:57.773Z,13.67
2018-11-26T15:50:01.355Z,14.00
2018-11-26T15:55:05.024Z,12.57
2018-11-26T16:00:13.105Z,12.13
2018-11-26T16:05:22.197Z,13.80
2018-11-26T16:10:25.501Z,20.13
2018-11-26T16:15:35.256Z,13.00
2018-11-26T16:20:38.473Z,14.37
2018-11-26T16:25:46.590Z,24.33
2018-11-26T16:30:49.847Z,16.70
2018-11-26T16:35:53.090Z,14.60
2018-11-26T16:40:56.366Z,15.63
2018-11-26T16:45:59.584Z,20.00
2018-11-26T16:51:02.782Z,27.67
2018-11-26T16:56:06.057Z,22.20
2018-11-26T17:01:09.271Z,26.10
2018-11-26T17:06:12.479Z,21.13
2018-11-26T17:11:15.802Z,21.67
2018-11-26T17:16:19.115Z,40.43
2018-11-26T17:21:22.342Z,24.53
2018-11-26T17:26:25.649Z,21.47
2018-11-26T17:31:28.873Z,20.07
2018-11-26T17:36:32.102Z,18.53
2018-11-26T17:41:35.321Z,21.03
2018-11-26T17:46:38.652Z,21.83
2018-11-26T17:51:41.880Z,41.03
2018-11-26T17:56:45.125Z,25.40
2018-11-26T18:01:48.463Z,30.33
2018-11-26T18:06:51.878Z,27.77
2018-11-26T18:11:55.119Z,20.43
2018-11-26T18:16:58.361Z,21.03
2018-11-26T18:22:01.674Z,24.40
2018-11-26T18:27:07.265Z,26.00
2018-11-26T18:32:10.669Z,24.60
2018-11-26T18:37:13.894Z,23.63
2018-11-26T18:42:17.144Z,35.37
2018-11-26T18:47:23.515Z,26.53
2018-11-26T18:52:26.808Z,32.10
2018-11-26T18:57:30.075Z,36.10
2018-11-26T19:02:33.366Z,45.47
2018-11-26T19:07:36.638Z,24.37
2018-11-26T19:12:40.148Z,21.90
2018-11-26T19:17:43.390Z,23.27
2018-11-26T19:22:46.790Z,21.63
2018-11-26T19:27:50.083Z,20.63
2018-11-26T19:32:53.356Z,21.37
2018-11-26T19:37:56.625Z,21.63
2018-11-26T19:42:59.986Z,29.77
2018-11-26T19:48:03.321Z,26.97
2018-11-26T19:53:10.001Z,23.53
2018-11-26T19:58:13.413Z,26.17
2018-11-26T20:03:24.634Z,23.23
2018-11-26T20:08:27.953Z,22.03
2018-11-26T20:13:31.307Z,20.60
2018-11-26T20:18:34.693Z,23.03
2018-11-26T20:23:38.773Z,23.67
2018-11-26T20:28:42.108Z,17.93
2018-11-26T20:33:45.471Z,28.70
2018-11-26T20:38:48.767Z,24.27
2018-11-26T20:43:52.054Z,21.53
2018-11-26T20:48:55.292Z,24.83
2018-11-26T20:53:58.552Z,24.40
2018-11-26T20:59:01.801Z,26.57
2018-11-26T21:04:05.442Z,27.60
2018-11-26T21:09:09.038Z,26.73
2018-11-26T21:14:12.277Z,26.73
2018-11-26T21:19:15.562Z,26.77
2018-11-26T21:24:18.814Z,25.97
2018-11-26T21:29:22.083Z,27.20
2018-11-26T21:34:25.344Z,26.40
2018-11-26T21:39:28.571Z,26.83
2018-11-26T21:44:31.865Z,27.07
2018-11-26T21:49:35.106Z,32.50
2018-11-26T21:54:38.307Z,27.27
2018-11-26T21:59:41.536Z,29.10
2018-11-26T22:04:44.775Z,29.83
2018-11-26T22:09:48.045Z,27.40
2018-11-26T22:14:51.403Z,27.77
2018-11-26T22:19:54.631Z,31.23
2018-11-26T22:24:57.834Z,37.57
2018-11-26T22:30:01.110Z,33.50
2018-11-26T22:35:05.073Z,38.57
2018-11-26T22:40:11.554Z,35.73
2018-11-26T22:45:17.340Z,34.83
2018-11-26T22:50:20.573Z,33.23
2018-11-26T22:55:23.777Z,34.03
2018-11-26T23:00:34.969Z,35.90
2018-11-26T23:05:38.182Z,33.93
2018-11-26T23:10:41.402Z,38.27
2018-11-26T23:15:44.665Z,42.10
2018-11-26T23:20:47.857Z,41.83
2018-11-26T23:25:52.954Z,39.63
2018-11-26T23:30:57.911Z,37.73
2018-11-26T23:36:03.828Z,42.83
2018-11-26T23:41:07.288Z,41.90
2018-11-26T23:46:10.772Z,37.67
2018-11-26T23:51:13.962Z,38.37
2018-11-26T23:56:17.133Z,34.87
